createdAt,value
2019-02-03T00:03:33.017Z,96985.11
2019-02-03T00:06:21.810Z,96988.94
2019-02-03T00:09:30.114Z,96989.87
2019-02-03T00:12:18.902Z,96993.64
2019-02-03T00:15:28.620Z,96994.09
2019-02-03T00:18:17.434Z,96736.38
2019-02-03T00:21:06.227Z,96991.54
2019-02-03T00:23:55.037Z,96991.61
2019-02-03T00:26:43.836Z,96992.41
2019-02-03T00:29:33.419Z,96848.29
2019-02-03T00:32:22.221Z,96987.74
2019-02-03T00:38:25.999Z,96735.52
2019-02-03T00:41:16.533Z,96718.61
2019-02-03T00:47:33.950Z,97004.30
2019-02-03T00:50:22.742Z,96793.78
2019-02-03T00:53:11.614Z,96935.38
2019-02-03T00:56:02.147Z,96748.15
2019-02-03T00:58:50.956Z,96752.81
2019-02-03T01:01:41.460Z,97041.54
2019-02-03T01:04:30.265Z,97058.46
2019-02-03T01:07:27.075Z,97059.73
2019-02-03T01:10:30.579Z,97067.36
2019-02-03T01:13:19.552Z,97077.11
2019-02-03T01:16:08.343Z,96913.80
2019-02-03T01:21:51.924Z,97103.35
2019-02-03T01:27:34.633Z,97119.00
2019-02-03T01:30:17.692Z,97118.56
2019-02-03T01:33:06.492Z,97128.32
2019-02-03T01:35:57.019Z,96911.67
2019-02-03T01:38:45.825Z,96963.67
2019-02-03T01:41:34.626Z,97150.33
2019-02-03T01:44:23.440Z,96923.90
2019-02-03T01:50:19.981Z,97131.69
2019-02-03T01:53:08.796Z,97169.81
2019-02-03T01:55:57.601Z,96917.08
2019-02-03T01:58:48.136Z,97164.72
2019-02-03T02:01:36.933Z,97160.89
2019-02-03T02:04:27.479Z,97163.05
2019-02-03T02:07:16.270Z,97163.05
2019-02-03T02:10:25.987Z,97165.54
2019-02-03T02:13:14.791Z,97159.19
2019-02-03T02:16:04.002Z,97015.20
2019-02-03T02:18:52.803Z,97171.47
2019-02-03T02:21:41.598Z,97176.98
2019-02-03T02:24:30.408Z,97175.72
2019-02-03T02:27:20.933Z,97179.10
2019-02-03T02:30:02.114Z,96951.32
2019-02-03T02:35:45.612Z,97162.06
2019-02-03T02:38:34.406Z,97155.35
2019-02-03T02:41:23.282Z,96994.50
2019-02-03T02:44:12.081Z,97163.41
2019-02-03T02:47:00.904Z,97161.70
2019-02-03T02:49:49.680Z,97161.71
2019-02-03T02:52:57.588Z,97177.77
2019-02-03T02:55:46.373Z,97152.43
2019-02-03T02:58:35.180Z,96907.59
2019-02-03T03:01:23.974Z,96942.92
2019-02-03T03:04:12.784Z,97206.54
2019-02-03T03:07:01.809Z,97133.08
2019-02-03T03:09:50.634Z,97210.76
2019-02-03T03:12:39.410Z,97217.99
2019-02-03T03:15:28.225Z,97224.35
2019-02-03T03:21:24.763Z,97227.33
2019-02-03T03:24:13.624Z,97119.28
2019-02-03T03:27:02.451Z,97232.82
2019-02-03T03:29:51.239Z,97233.61
2019-02-03T03:32:33.241Z,97238.28
2019-02-03T03:35:22.171Z,97261.23
2019-02-03T03:38:10.976Z,97271.79
2019-02-03T03:40:59.835Z,97195.05
2019-02-03T03:43:50.438Z,97274.67
2019-02-03T03:46:39.251Z,97284.00
2019-02-03T03:49:29.765Z,97304.88
2019-02-03T03:52:18.642Z,97308.28
2019-02-03T03:58:24.867Z,97315.91
2019-02-03T04:01:13.741Z,97329.05
2019-02-03T04:04:02.594Z,97089.90
2019-02-03T04:06:51.406Z,97342.97
2019-02-03T04:09:40.199Z,97139.52
2019-02-03T04:12:29.010Z,97350.19
2019-02-03T04:15:19.359Z,97130.11
2019-02-03T04:18:08.148Z,97133.55
2019-02-03T04:20:56.957Z,97356.15
2019-02-03T04:23:47.497Z,97362.86
2019-02-03T04:26:55.333Z,97362.02
2019-02-03T04:29:44.139Z,97366.20
2019-02-03T04:32:25.836Z,97379.28
2019-02-03T04:35:14.624Z,97378.94
2019-02-03T04:38:03.438Z,97138.89
2019-02-03T04:40:53.946Z,97382.78
2019-02-03T04:43:42.753Z,97386.96
2019-02-03T04:46:33.266Z,97394.91
2019-02-03T04:49:41.096Z,97400.88
2019-02-03T04:52:30.183Z,97402.39
2019-02-03T04:55:39.903Z,97405.61
2019-02-03T04:58:28.712Z,97397.88
2019-02-03T05:01:17.499Z,97395.84
2019-02-03T05:04:06.312Z,97400.94
2019-02-03T05:06:55.367Z,97399.68
2019-02-03T05:09:37.332Z,97321.17
2019-02-03T05:12:26.206Z,97150.86
2019-02-03T05:15:35.923Z,97400.00
2019-02-03T05:18:24.723Z,97392.78
2019-02-03T05:21:13.526Z,97395.34
2019-02-03T05:24:02.343Z,97152.61
2019-02-03T05:26:51.145Z,97391.80
2019-02-03T05:29:39.982Z,97394.03
2019-02-03T05:32:28.798Z,97388.59
2019-02-03T05:35:17.582Z,97393.70
2019-02-03T05:38:06.459Z,97393.78
2019-02-03T05:40:55.259Z,97369.69
2019-02-03T05:43:44.067Z,97235.52
2019-02-03T05:46:32.861Z,97399.34
2019-02-03T05:49:23.383Z,97402.25
2019-02-03T05:52:12.178Z,97410.92
2019-02-03T05:55:02.708Z,97410.33
2019-02-03T05:57:51.495Z,97410.33
2019-02-03T06:03:39.610Z,97422.80
2019-02-03T06:06:30.137Z,97435.02
2019-02-03T06:09:18.926Z,97333.08
2019-02-03T06:12:00.333Z,97451.02
2019-02-03T06:14:49.143Z,97225.00
2019-02-03T06:17:37.927Z,97204.41
2019-02-03T06:20:26.800Z,97449.61
2019-02-03T06:23:15.593Z,97369.63
2019-02-03T06:26:04.404Z,97180.22
2019-02-03T06:28:53.191Z,97453.16
2019-02-03T06:31:41.997Z,97446.60
2019-02-03T06:34:30.793Z,97451.67
2019-02-03T06:37:21.321Z,97461.54
2019-02-03T06:43:26.143Z,97467.80
2019-02-03T06:46:33.985Z,97478.27
2019-02-03T06:55:26.264Z,97499.98
2019-02-03T06:58:15.085Z,97504.68
2019-02-03T07:01:04.141Z,97522.56
2019-02-03T07:03:52.986Z,97495.34
2019-02-03T07:06:41.866Z,97456.66
2019-02-03T07:09:31.046Z,97457.48
2019-02-03T07:12:12.759Z,97536.30
2019-02-03T07:15:01.572Z,97549.58
2019-02-03T07:17:50.364Z,97551.06
2019-02-03T07:20:40.884Z,97550.55
2019-02-03T07:23:29.679Z,97289.23
2019-02-03T07:26:18.487Z,97556.11
2019-02-03T07:28:59.899Z,97557.62
2019-02-03T07:31:48.709Z,97557.83
2019-02-03T07:34:37.516Z,97563.55
2019-02-03T07:37:26.307Z,97570.48
2019-02-03T07:40:36.019Z,97568.09
2019-02-03T07:43:24.808Z,97483.23
2019-02-03T07:46:13.613Z,97573.94
2019-02-03T07:52:11.806Z,97588.05
2019-02-03T07:55:00.707Z,97355.64
2019-02-03T07:57:49.482Z,97599.83
2019-02-03T08:00:40.295Z,97611.12
2019-02-03T08:03:29.091Z,97610.00
2019-02-03T08:09:32.569Z,97618.03
2019-02-03T08:12:21.380Z,97623.91
2019-02-03T08:15:02.843Z,97477.25
2019-02-03T08:17:51.728Z,97625.23
2019-02-03T08:20:40.507Z,97630.20
2019-02-03T08:23:29.315Z,97629.47
2019-02-03T08:26:18.121Z,97633.22
2019-02-03T08:32:35.323Z,97640.70
2019-02-03T08:35:24.135Z,97647.08
2019-02-03T08:38:12.943Z,97656.86
2019-02-03T08:41:01.734Z,97398.89
2019-02-03T08:43:50.554Z,97666.33
2019-02-03T08:46:39.337Z,97672.95
2019-02-03T08:49:47.174Z,97674.84
2019-02-03T08:52:35.959Z,97673.16
2019-02-03T08:55:24.771Z,97678.94
2019-02-03T08:58:13.556Z,97683.05
2019-02-03T09:01:02.359Z,97692.80
2019-02-03T09:03:51.158Z,97691.74
2019-02-03T09:06:39.967Z,97701.45
2019-02-03T09:09:28.758Z,97559.99
2019-02-03T09:12:17.563Z,97720.42
2019-02-03T09:15:27.260Z,97720.13
2019-02-03T09:18:16.081Z,97730.62
2019-02-03T09:21:05.139Z,97726.09
2019-02-03T09:23:53.939Z,97736.27
2019-02-03T09:26:42.729Z,97737.98
2019-02-03T09:29:31.549Z,97736.91
2019-02-03T09:32:12.928Z,97713.55
2019-02-03T09:35:01.718Z,97750.60
2019-02-03T09:37:52.242Z,97758.26
2019-02-03T09:40:41.029Z,97766.41
2019-02-03T09:43:31.555Z,97512.56
2019-02-03T09:46:20.410Z,97788.63
2019-02-03T09:49:09.221Z,97792.81
2019-02-03T09:51:58.005Z,97791.77
2019-02-03T09:54:46.814Z,97794.51
2019-02-03T09:57:35.601Z,97807.28
2019-02-03T10:00:45.343Z,97805.85
2019-02-03T10:03:34.191Z,97814.53
2019-02-03T10:06:23.002Z,97826.22
2019-02-03T10:09:11.826Z,97586.29
2019-02-03T10:12:00.642Z,97831.13
2019-02-03T10:14:49.434Z,97830.67
2019-02-03T10:17:30.836Z,97601.48
2019-02-03T10:20:38.944Z,97833.21
2019-02-03T10:23:27.749Z,97838.14
2019-02-03T10:26:18.277Z,97841.03
2019-02-03T10:29:07.156Z,97844.34
2019-02-03T10:31:56.019Z,97574.50
2019-02-03T10:34:44.832Z,97849.39
2019-02-03T10:37:33.630Z,97852.78
2019-02-03T10:40:42.873Z,97652.39
2019-02-03T10:43:31.670Z,97862.47
2019-02-03T10:46:20.477Z,97855.33
2019-02-03T10:49:09.264Z,97857.73
2019-02-03T10:51:58.082Z,97850.91
2019-02-03T10:54:46.873Z,97861.58
2019-02-03T11:00:50.194Z,97853.20
2019-02-03T11:03:40.703Z,97777.45
2019-02-03T11:06:29.510Z,97862.17
2019-02-03T11:09:18.318Z,97858.33
2019-02-03T11:12:07.194Z,97623.62
2019-02-03T11:14:48.878Z,97861.53
2019-02-03T11:17:37.681Z,97855.05
2019-02-03T11:20:47.401Z,97857.07
2019-02-03T11:23:55.235Z,97856.08
2019-02-03T11:26:36.961Z,97861.93
2019-02-03T11:29:25.801Z,97868.31
2019-02-03T11:32:14.607Z,97864.02
2019-02-03T11:35:03.400Z,97872.80
2019-02-03T11:37:52.266Z,97875.96
2019-02-03T11:40:41.059Z,97877.84
2019-02-03T11:43:29.876Z,97874.34
2019-02-03T11:46:20.373Z,97883.50
2019-02-03T11:49:09.179Z,97889.20
2019-02-03T11:51:59.709Z,97890.80
2019-02-03T11:54:48.496Z,97880.44
2019-02-03T11:57:37.304Z,97885.25
2019-02-03T12:00:47.014Z,97892.67
2019-02-03T12:03:35.830Z,97882.95
2019-02-03T12:06:24.615Z,97885.91
2019-02-03T12:09:13.425Z,97888.63
2019-02-03T12:12:02.213Z,97900.20
2019-02-03T12:14:51.041Z,97900.41
2019-02-03T12:17:40.166Z,97752.58
2019-02-03T12:20:30.697Z,97912.87
2019-02-03T12:23:19.512Z,97843.95
2019-02-03T12:26:10.049Z,97918.42
2019-02-03T12:28:51.774Z,97644.96
2019-02-03T12:31:40.589Z,97926.63
2019-02-03T12:34:29.383Z,97669.09
2019-02-03T12:37:18.192Z,97932.52
2019-02-03T12:40:27.893Z,97934.89
2019-02-03T12:43:18.415Z,97935.30
2019-02-03T12:46:07.284Z,97947.22
2019-02-03T12:48:58.181Z,97956.77
2019-02-03T12:51:46.967Z,97948.50
2019-02-03T12:54:37.509Z,97679.21
2019-02-03T12:57:26.310Z,97958.58
2019-02-03T13:00:36.029Z,97704.36
2019-02-03T13:03:25.362Z,97971.42
2019-02-03T13:06:15.350Z,97892.91
2019-02-03T13:09:25.081Z,97969.53
2019-02-03T13:15:32.394Z,97985.02
2019-02-03T13:18:21.217Z,97987.19
2019-02-03T13:21:10.076Z,97988.77
2019-02-03T13:23:59.121Z,97725.27
2019-02-03T13:26:47.931Z,98003.05
2019-02-03T13:29:36.803Z,97997.75
2019-02-03T13:32:25.670Z,98006.02
2019-02-03T13:35:33.709Z,98007.84
2019-02-03T13:38:22.550Z,98009.87
2019-02-03T13:41:11.391Z,97753.47
2019-02-03T13:44:21.065Z,97853.31
2019-02-03T13:47:09.850Z,98020.97
2019-02-03T13:49:58.645Z,98027.91
2019-02-03T13:52:49.236Z,97803.91
2019-02-03T13:55:38.038Z,98029.81
2019-02-03T13:58:36.536Z,98023.61
2019-02-03T14:01:17.362Z,98034.91
2019-02-03T14:04:06.217Z,98045.48
2019-02-03T14:06:55.026Z,98054.31
2019-02-03T14:09:43.812Z,98065.61
2019-02-03T14:12:32.618Z,98069.48
2019-02-03T14:15:21.588Z,98077.59
2019-02-03T14:18:03.150Z,98074.06
2019-02-03T14:20:51.952Z,97846.77
2019-02-03T14:23:40.767Z,98077.39
2019-02-03T14:26:29.561Z,97974.49
2019-02-03T14:29:20.236Z,98086.64
2019-02-03T14:32:08.967Z,98091.51
2019-02-03T14:34:59.498Z,98097.73
2019-02-03T14:37:48.372Z,98100.25
2019-02-03T14:40:39.216Z,97849.19
2019-02-03T14:43:28.097Z,97949.03
2019-02-03T14:46:16.879Z,98106.51
2019-02-03T14:49:05.693Z,98112.50
2019-02-03T14:51:54.467Z,98119.05
2019-02-03T14:54:43.291Z,98121.72
2019-02-03T14:57:32.087Z,98121.19
2019-02-03T15:00:41.693Z,98118.11
2019-02-03T15:03:32.221Z,98123.23
2019-02-03T15:06:21.017Z,98077.72
2019-02-03T15:09:12.051Z,98025.94
2019-02-03T15:12:00.867Z,98131.73
2019-02-03T15:14:49.646Z,98134.92
2019-02-03T15:17:38.449Z,98134.81
2019-02-03T15:20:28.103Z,97919.77
2019-02-03T15:23:16.909Z,98142.11
2019-02-03T15:26:05.954Z,98138.82
2019-02-03T15:28:54.837Z,98154.95
2019-02-03T15:31:43.631Z,98154.48
2019-02-03T15:34:32.441Z,98155.11
2019-02-03T15:37:21.229Z,98157.66
2019-02-03T15:40:30.958Z,98162.27
2019-02-03T15:43:25.640Z,98164.24
2019-02-03T15:46:12.069Z,98174.20
2019-02-03T15:49:01.016Z,98044.30
2019-02-03T15:51:49.825Z,98175.57
2019-02-03T15:54:38.618Z,98173.63
2019-02-03T15:57:30.428Z,98184.41
2019-02-03T16:00:38.435Z,98189.80
2019-02-03T16:03:27.240Z,98191.95
2019-02-03T16:06:16.061Z,98194.67
2019-02-03T16:09:25.778Z,98199.18
2019-02-03T16:12:14.566Z,98209.18
2019-02-03T16:14:56.384Z,98068.52
2019-02-03T16:17:45.174Z,98217.80
2019-02-03T16:20:33.985Z,98224.58
2019-02-03T16:23:22.779Z,98227.22
2019-02-03T16:26:11.583Z,98225.12
2019-02-03T16:29:00.378Z,97993.15
2019-02-03T16:31:49.176Z,98244.62
2019-02-03T16:34:37.978Z,98252.96
2019-02-03T16:37:26.789Z,98250.09
2019-02-03T16:40:34.903Z,98254.78
2019-02-03T16:43:23.715Z,98260.91
2019-02-03T16:46:12.513Z,98269.38
2019-02-03T16:49:01.344Z,98273.03
2019-02-03T16:51:50.237Z,98250.96
2019-02-03T16:54:39.035Z,98027.19
2019-02-03T16:57:27.834Z,98287.55
2019-02-03T17:00:37.561Z,98296.41
2019-02-03T17:03:28.074Z,98304.41
2019-02-03T17:06:17.165Z,98310.47
2019-02-03T17:12:16.947Z,98315.80
2019-02-03T17:15:26.649Z,98326.83
2019-02-03T17:18:17.188Z,98335.62
2019-02-03T17:21:05.990Z,98340.31
2019-02-03T17:27:02.528Z,98352.27
2019-02-03T17:29:51.316Z,98356.31
2019-02-03T17:32:40.129Z,98361.80
2019-02-03T17:35:30.691Z,98365.88
2019-02-03T17:38:19.522Z,98362.75
2019-02-03T17:41:10.096Z,98366.53
2019-02-03T17:43:58.903Z,98375.04
2019-02-03T17:46:47.708Z,98380.59
2019-02-03T17:49:36.542Z,98387.17
2019-02-03T17:52:25.469Z,98386.16
2019-02-03T17:55:33.597Z,98245.69
2019-02-03T17:58:22.561Z,98246.36
2019-02-03T18:01:11.363Z,98400.05
2019-02-03T18:04:01.861Z,98405.11
2019-02-03T18:06:41.622Z,98403.61
2019-02-03T18:09:30.485Z,98412.22
2019-02-03T18:12:19.293Z,98421.53
2019-02-03T18:15:28.987Z,98220.44
2019-02-03T18:18:17.906Z,98431.31
2019-02-03T18:21:06.683Z,98214.78
2019-02-03T18:23:55.554Z,98437.14
2019-02-03T18:26:44.368Z,98436.04
2019-02-03T18:29:33.153Z,98444.37
2019-02-03T18:32:21.955Z,98268.00
2019-02-03T18:35:31.656Z,98447.53
2019-02-03T18:38:22.303Z,98449.06
2019-02-03T18:41:11.142Z,98213.70
2019-02-03T18:43:59.997Z,98213.69
2019-02-03T18:46:48.909Z,98463.02
2019-02-03T18:49:37.767Z,98472.28
2019-02-03T18:52:26.640Z,98471.16
2019-02-03T18:55:37.716Z,98477.59
2019-02-03T18:58:18.948Z,98223.23
2019-02-03T19:01:07.822Z,98480.27
2019-02-03T19:03:56.618Z,98478.02
2019-02-03T19:06:38.157Z,98250.15
2019-02-03T19:09:26.952Z,98487.66
2019-02-03T19:12:15.773Z,98494.65
2019-02-03T19:18:19.929Z,98508.41
2019-02-03T19:21:08.741Z,98521.24
2019-02-03T19:23:57.613Z,98525.69
2019-02-03T19:26:46.362Z,98530.18
2019-02-03T19:29:35.172Z,98543.30
2019-02-03T19:32:23.959Z,98535.53
2019-02-03T19:38:28.931Z,98530.96
2019-02-03T19:41:17.719Z,98530.37
2019-02-03T19:44:06.529Z,98533.78
2019-02-03T19:46:57.032Z,98401.66
2019-02-03T19:49:46.582Z,98538.08
2019-02-03T19:52:36.359Z,98539.22
2019-02-03T19:55:25.178Z,98546.17
2019-02-03T19:58:13.984Z,98553.45
2019-02-03T20:01:02.778Z,98554.03
2019-02-03T20:03:51.611Z,98562.83
2019-02-03T20:06:31.348Z,98559.07
2019-02-03T20:09:20.150Z,98571.11
2019-02-03T20:12:08.972Z,98578.34
2019-02-03T20:14:57.783Z,98582.67
2019-02-03T20:17:48.418Z,98581.32
2019-02-03T20:20:56.617Z,98488.52
2019-02-03T20:23:45.513Z,98589.44
2019-02-03T20:26:34.296Z,98597.12
2019-02-03T20:29:23.129Z,98609.80
2019-02-03T20:32:11.911Z,98600.50
2019-02-03T20:35:00.808Z,98602.05
2019-02-03T20:37:49.703Z,98612.16
2019-02-03T20:41:01.128Z,98609.83
2019-02-03T20:43:49.924Z,98618.68
2019-02-03T20:46:38.720Z,98625.62
2019-02-03T20:49:27.510Z,98615.91
2019-02-03T20:52:16.326Z,98370.73
2019-02-03T20:55:26.338Z,98338.70
2019-02-03T20:58:08.496Z,98622.88
2019-02-03T21:00:57.378Z,98630.67
2019-02-03T21:03:46.170Z,98635.85
2019-02-03T21:06:35.023Z,98376.80
2019-02-03T21:09:23.820Z,98640.56
2019-02-03T21:12:12.635Z,98640.84
2019-02-03T21:15:01.727Z,98648.21
2019-02-03T21:17:50.541Z,98632.22
2019-02-03T21:20:39.310Z,98655.20
2019-02-03T21:23:28.120Z,98657.91
2019-02-03T21:26:16.895Z,98431.34
2019-02-03T21:29:05.781Z,98675.28
2019-02-03T21:31:54.567Z,98668.08
2019-02-03T21:34:43.388Z,98650.61
2019-02-03T21:37:32.181Z,98425.92
2019-02-03T21:40:41.896Z,98462.89
2019-02-03T21:43:30.688Z,98688.47
2019-02-03T21:46:19.506Z,98688.52
2019-02-03T21:49:08.590Z,98685.81
2019-02-03T21:51:57.403Z,98440.95
2019-02-03T21:54:46.279Z,98456.20
2019-02-03T21:57:35.210Z,98697.16
2019-02-03T22:00:23.209Z,98692.55
2019-02-03T22:03:12.032Z,98685.20
2019-02-03T22:06:00.821Z,98611.22
2019-02-03T22:08:51.333Z,98696.14
2019-02-03T22:11:40.145Z,98711.58
2019-02-03T22:14:30.754Z,98706.83
2019-02-03T22:17:19.553Z,98713.48
2019-02-03T22:20:29.267Z,98718.16
2019-02-03T22:23:18.055Z,98728.22
2019-02-03T22:26:06.879Z,98730.94
2019-02-03T22:28:55.663Z,98728.18
2019-02-03T22:31:44.469Z,98720.22
2019-02-03T22:34:33.261Z,98721.29
2019-02-03T22:37:22.253Z,98727.12
2019-02-03T22:40:31.956Z,98732.36
2019-02-03T22:43:20.772Z,98735.87
2019-02-03T22:46:09.624Z,98672.30
2019-02-03T22:48:58.525Z,98747.85
2019-02-03T22:51:47.360Z,98754.39
2019-02-03T22:54:36.224Z,98759.59
2019-02-03T22:57:25.172Z,98752.92
2019-02-03T23:00:54.300Z,98755.27
2019-02-03T23:03:43.751Z,98750.80
2019-02-03T23:06:32.642Z,98755.88
2019-02-03T23:12:17.269Z,98756.10
2019-02-03T23:15:27.025Z,98755.14
2019-02-03T23:18:09.695Z,98754.73
2019-02-03T23:20:58.561Z,98749.16
2019-02-03T23:23:47.458Z,98654.34
2019-02-03T23:26:36.451Z,98761.20
2019-02-03T23:29:25.268Z,98763.27
2019-02-03T23:32:14.064Z,98764.39
2019-02-03T23:35:02.880Z,98763.30
2019-02-03T23:37:53.418Z,98766.30
2019-02-03T23:40:42.208Z,98499.17
2019-02-03T23:43:31.025Z,98763.80
2019-02-03T23:46:29.386Z,98642.81
2019-02-03T23:49:10.357Z,98665.59
2019-02-03T23:51:59.150Z,98790.94
2019-02-03T23:54:49.812Z,98789.82
2019-02-03T23:57:38.478Z,98783.50
